createdAt,value
2018-03-28T00:00:02.649Z,159.70
2018-03-28T00:01:02.633Z,150.10
2018-03-28T00:02:02.652Z,152.60
2018-03-28T00:03:02.627Z,148.00
2018-03-28T00:04:02.651Z,153.80
2018-03-28T00:05:02.612Z,159.20
2018-03-28T00:06:02.822Z,145.80
2018-03-28T00:07:02.615Z,140.60
2018-03-28T00:08:02.594Z,142.40
2018-03-28T00:09:02.808Z,171.00
2018-03-28T00:10:02.597Z,138.10
2018-03-28T00:11:02.583Z,193.70
2018-03-28T00:12:02.577Z,199.60
2018-03-28T00:13:02.596Z,206.60
2018-03-28T00:14:02.582Z,174.70
2018-03-28T00:15:02.585Z,215.30
2018-03-28T00:16:02.810Z,193.20
2018-03-28T00:17:02.568Z,142.80
2018-03-28T00:18:02.574Z,181.40
2018-03-28T00:19:02.555Z,148.40
2018-03-28T00:20:02.553Z,188.20
2018-03-28T00:21:02.541Z,153.30
2018-03-28T00:22:02.544Z,177.50
2018-03-28T00:23:02.531Z,183.30
2018-03-28T00:24:02.524Z,184.60
2018-03-28T00:25:02.523Z,173.60
2018-03-28T00:26:02.547Z,159.20
2018-03-28T00:27:02.523Z,160.10
2018-03-28T00:28:02.538Z,153.20
2018-03-28T00:29:02.513Z,168.60
2018-03-28T00:30:02.496Z,202.70
2018-03-28T00:31:02.510Z,175.20
2018-03-28T00:32:02.498Z,156.20
2018-03-28T00:33:02.700Z,144.20
2018-03-28T00:34:02.682Z,148.90
2018-03-28T00:35:02.485Z,167.80
2018-03-28T00:36:02.466Z,191.50
2018-03-28T00:37:02.475Z,151.10
2018-03-28T00:38:02.481Z,149.50
2018-03-28T00:39:02.657Z,148.40
2018-03-28T00:40:02.452Z,148.90
2018-03-28T00:41:02.460Z,193.10
2018-03-28T00:42:02.466Z,145.30
2018-03-28T00:43:02.438Z,142.90
2018-03-28T00:44:02.454Z,237.30
2018-03-28T00:45:02.459Z,172.10
2018-03-28T00:46:02.425Z,158.10
2018-03-28T00:47:02.633Z,161.50
2018-03-28T00:48:02.412Z,167.20
2018-03-28T00:49:02.420Z,149.60
2018-03-28T00:50:02.418Z,143.30
2018-03-28T00:51:02.407Z,142.30
2018-03-28T00:52:02.401Z,152.10
2018-03-28T00:53:02.401Z,165.50
2018-03-28T00:54:02.395Z,154.00
2018-03-28T00:55:02.613Z,151.90
2018-03-28T00:56:02.388Z,158.90
2018-03-28T00:57:02.375Z,157.00
2018-03-28T00:58:02.368Z,160.40
2018-03-28T00:59:02.379Z,160.90
2018-03-28T01:00:02.365Z,168.10
2018-03-28T01:01:02.580Z,174.60
2018-03-28T01:02:02.372Z,168.20
2018-03-28T01:03:02.345Z,157.40
2018-03-28T01:04:02.543Z,161.80
2018-03-28T01:05:02.369Z,158.70
2018-03-28T01:06:02.342Z,167.10
2018-03-28T01:07:02.328Z,169.10
2018-03-28T01:08:02.322Z,164.50
2018-03-28T01:09:02.330Z,168.10
2018-03-28T01:10:02.338Z,165.80
2018-03-28T01:11:02.524Z,171.10
2018-03-28T01:12:02.524Z,167.70
2018-03-28T01:13:02.297Z,169.40
2018-03-28T01:14:02.297Z,172.60
2018-03-28T01:15:02.304Z,171.40
2018-03-28T01:16:02.287Z,173.60
2018-03-28T01:17:02.294Z,182.00
2018-03-28T01:18:02.495Z,174.90
2018-03-28T01:19:02.282Z,174.00
2018-03-28T01:20:02.266Z,174.70
2018-03-28T01:21:02.263Z,174.60
2018-03-28T01:22:02.272Z,177.50
2018-03-28T01:23:02.262Z,174.00
2018-03-28T01:24:02.259Z,177.10
2018-03-28T01:25:02.257Z,170.20
2018-03-28T01:26:02.255Z,170.60
2018-03-28T01:27:02.437Z,168.90
2018-03-28T01:28:02.248Z,178.60
2018-03-28T01:29:02.232Z,168.50
2018-03-28T01:30:02.222Z,156.70
2018-03-28T01:31:02.215Z,148.30
2018-03-28T01:32:02.233Z,165.10
2018-03-28T01:33:02.216Z,206.20
2018-03-28T01:34:02.233Z,182.60
2018-03-28T01:35:02.212Z,210.90
2018-03-28T01:36:02.194Z,307.20
2018-03-28T01:37:02.187Z,155.20
2018-03-28T01:38:02.186Z,137.10
2018-03-28T01:39:02.195Z,149.90
2018-03-28T01:40:02.177Z,142.30
2018-03-28T01:41:02.377Z,183.30
2018-03-28T01:42:02.164Z,155.20
2018-03-28T01:43:02.168Z,209.80
2018-03-28T01:44:02.151Z,168.00
2018-03-28T01:45:02.162Z,138.90
2018-03-28T01:46:02.167Z,139.00
2018-03-28T01:47:02.162Z,162.70
2018-03-28T01:48:02.159Z,205.60
2018-03-28T01:49:02.131Z,167.50
2018-03-28T01:50:02.330Z,149.70
2018-03-28T01:51:02.144Z,152.90
2018-03-28T01:52:02.153Z,162.90
2018-03-28T01:53:02.123Z,136.30
2018-03-28T01:54:02.123Z,146.60
2018-03-28T01:55:02.102Z,147.50
2018-03-28T01:56:02.100Z,162.30
2018-03-28T01:57:02.119Z,174.30
2018-03-28T01:58:02.086Z,164.00
2018-03-28T01:59:02.091Z,163.20
2018-03-28T02:00:02.317Z,162.50
2018-03-28T02:01:02.090Z,169.60
2018-03-28T02:02:02.105Z,160.10
2018-03-28T02:03:02.269Z,166.90
2018-03-28T02:04:02.074Z,169.40
2018-03-28T02:05:02.070Z,167.40
2018-03-28T02:06:02.052Z,170.00
2018-03-28T02:07:02.048Z,169.50
2018-03-28T02:08:02.247Z,173.70
2018-03-28T02:09:02.047Z,175.50
2018-03-28T02:10:02.046Z,170.90
2018-03-28T02:11:02.028Z,176.10
2018-03-28T02:12:02.242Z,180.60
2018-03-28T02:13:02.240Z,182.20
2018-03-28T02:14:02.024Z,175.90
2018-03-28T02:15:02.224Z,176.40
2018-03-28T02:16:02.213Z,175.50
2018-03-28T02:17:02.203Z,185.20
2018-03-28T02:18:02.006Z,186.70
2018-03-28T02:19:01.998Z,187.00
2018-03-28T02:20:01.995Z,181.30
2018-03-28T02:21:02.008Z,188.80
2018-03-28T02:22:01.985Z,183.10
2018-03-28T02:23:01.995Z,181.50
2018-03-28T02:24:01.980Z,177.30
2018-03-28T02:25:02.180Z,184.80
2018-03-28T02:26:01.957Z,180.80
2018-03-28T02:27:01.960Z,177.30
2018-03-28T02:28:01.964Z,182.50
2018-03-28T02:29:02.144Z,180.60
2018-03-28T02:30:01.940Z,181.90
2018-03-28T02:31:01.929Z,178.00
2018-03-28T02:32:01.938Z,190.00
2018-03-28T02:33:01.917Z,175.30
2018-03-28T02:34:01.929Z,184.30
2018-03-28T02:35:02.126Z,188.80
2018-03-28T02:36:01.933Z,192.50
2018-03-28T02:37:02.105Z,184.50
2018-03-28T02:38:01.894Z,193.10
2018-03-28T02:39:01.905Z,185.20
2018-03-28T02:40:02.117Z,196.50
2018-03-28T02:41:02.096Z,186.10
2018-03-28T02:42:02.093Z,191.00
2018-03-28T02:43:01.872Z,190.70
2018-03-28T02:44:02.073Z,195.30
2018-03-28T02:45:01.861Z,192.90
2018-03-28T02:46:02.062Z,200.50
2018-03-28T02:47:02.078Z,204.80
2018-03-28T02:48:01.919Z,208.60
2018-03-28T02:49:01.840Z,202.10
2018-03-28T02:50:01.843Z,204.70
2018-03-28T02:51:01.829Z,202.30
2018-03-28T02:52:02.039Z,202.20
2018-03-28T02:53:01.824Z,200.60
2018-03-28T02:54:01.825Z,200.70
2018-03-28T02:55:01.835Z,198.50
2018-03-28T02:56:01.804Z,201.40
2018-03-28T02:57:01.816Z,203.30
2018-03-28T02:58:02.010Z,204.30
2018-03-28T02:59:01.785Z,204.40
2018-03-28T03:00:01.795Z,194.20
2018-03-28T03:01:01.785Z,203.30
2018-03-28T03:02:01.798Z,192.10
2018-03-28T03:03:01.984Z,205.10
2018-03-28T03:04:01.770Z,203.80
2018-03-28T03:05:01.777Z,191.70
2018-03-28T03:06:01.960Z,191.90
2018-03-28T03:07:01.745Z,185.90
2018-03-28T03:08:01.955Z,184.80
2018-03-28T03:09:01.735Z,186.20
2018-03-28T03:10:01.768Z,188.80
2018-03-28T03:11:01.748Z,202.80
2018-03-28T03:12:01.735Z,197.70
2018-03-28T03:13:01.716Z,198.20
2018-03-28T03:14:01.707Z,196.90
2018-03-28T03:15:01.715Z,186.60
2018-03-28T03:16:01.905Z,185.30
2018-03-28T03:17:01.918Z,176.40
2018-03-28T03:18:01.706Z,189.00
2018-03-28T03:19:01.697Z,191.20
2018-03-28T03:20:01.682Z,180.90
2018-03-28T03:21:01.887Z,181.80
2018-03-28T03:22:01.681Z,189.10
2018-03-28T03:23:01.671Z,175.10
2018-03-28T03:24:01.669Z,182.40
2018-03-28T03:25:01.653Z,180.40
2018-03-28T03:26:01.674Z,175.60
2018-03-28T03:27:01.665Z,175.70
2018-03-28T03:28:01.654Z,179.30
2018-03-28T03:29:01.648Z,168.90
2018-03-28T03:30:01.836Z,179.30
2018-03-28T03:31:01.626Z,167.40
2018-03-28T03:32:01.615Z,163.30
2018-03-28T03:33:01.633Z,176.80
2018-03-28T03:34:01.817Z,176.20
2018-03-28T03:35:01.822Z,174.60
2018-03-28T03:36:01.599Z,172.80
2018-03-28T03:37:01.697Z,172.30
2018-03-28T03:38:01.597Z,164.30
2018-03-28T03:39:01.593Z,228.90
2018-03-28T03:40:01.579Z,155.50
2018-03-28T03:41:01.587Z,192.20
2018-03-28T03:42:01.596Z,162.70
2018-03-28T03:43:01.574Z,166.40
2018-03-28T03:44:01.557Z,183.70
2018-03-28T03:45:01.770Z,173.30
2018-03-28T03:46:01.572Z,193.20
2018-03-28T03:47:01.765Z,172.50
2018-03-28T03:48:01.618Z,169.90
2018-03-28T03:49:01.553Z,166.10
2018-03-28T03:50:01.547Z,165.60
2018-03-28T03:51:01.528Z,175.40
2018-03-28T03:52:01.523Z,175.30
2018-03-28T03:53:01.730Z,151.00
2018-03-28T03:54:01.528Z,175.00
2018-03-28T03:55:01.509Z,195.60
2018-03-28T03:56:01.707Z,225.50
2018-03-28T03:57:01.509Z,162.10
2018-03-28T03:58:01.493Z,170.00
2018-03-28T03:59:01.706Z,150.40
2018-03-28T04:00:01.511Z,159.30
2018-03-28T04:01:01.479Z,162.70
2018-03-28T04:02:01.538Z,157.20
2018-03-28T04:03:01.481Z,160.20
2018-03-28T04:04:01.468Z,152.20
2018-03-28T04:05:01.665Z,158.20
2018-03-28T04:06:01.671Z,155.20
2018-03-28T04:07:01.461Z,151.60
2018-03-28T04:08:01.465Z,162.50
2018-03-28T04:09:01.643Z,152.10
2018-03-28T04:10:01.449Z,153.50
2018-03-28T04:11:01.444Z,153.20
2018-03-28T04:12:01.442Z,148.60
2018-03-28T04:13:01.638Z,156.70
2018-03-28T04:14:01.438Z,154.00
2018-03-28T04:15:01.435Z,154.90
2018-03-28T04:16:01.418Z,153.80
2018-03-28T04:17:01.413Z,157.80
2018-03-28T04:18:01.397Z,164.70
2018-03-28T04:19:01.595Z,158.30
2018-03-28T04:20:01.411Z,154.10
2018-03-28T04:21:01.395Z,154.50
2018-03-28T04:22:01.403Z,165.70
2018-03-28T04:23:01.396Z,156.20
2018-03-28T04:24:01.391Z,161.00
2018-03-28T04:25:01.375Z,165.00
2018-03-28T04:26:01.388Z,159.60
2018-03-28T04:27:01.578Z,160.40
2018-03-28T04:28:01.352Z,164.60
2018-03-28T04:29:01.546Z,153.80
2018-03-28T04:30:01.394Z,154.40
2018-03-28T04:31:01.335Z,157.10
2018-03-28T04:32:01.361Z,155.00
2018-03-28T04:33:01.363Z,157.60
2018-03-28T04:34:01.561Z,154.90
2018-03-28T04:35:01.521Z,146.90
2018-03-28T04:36:01.322Z,142.80
2018-03-28T04:37:01.524Z,148.50
2018-03-28T04:38:01.299Z,143.00
2018-03-28T04:39:01.310Z,154.50
2018-03-28T04:40:01.501Z,157.00
2018-03-28T04:41:01.316Z,149.20
2018-03-28T04:42:01.281Z,142.30
2018-03-28T04:43:01.288Z,151.60
2018-03-28T04:44:01.289Z,144.40
2018-03-28T04:45:01.276Z,142.40
2018-03-28T04:46:01.275Z,128.50
2018-03-28T04:47:01.270Z,138.50
2018-03-28T04:48:01.269Z,136.90
2018-03-28T04:49:01.251Z,124.20
2018-03-28T04:50:01.448Z,127.20
2018-03-28T04:51:01.248Z,120.40
2018-03-28T04:52:01.256Z,124.80
2018-03-28T04:53:01.232Z,125.50
2018-03-28T04:54:01.240Z,122.90
2018-03-28T04:55:01.235Z,122.80
2018-03-28T04:56:01.254Z,115.80
2018-03-28T04:57:01.224Z,126.60
2018-03-28T04:58:01.420Z,121.70
2018-03-28T04:59:01.234Z,116.70
2018-03-28T05:00:01.209Z,117.30
2018-03-28T05:01:01.403Z,116.00
2018-03-28T05:02:01.184Z,112.00
2018-03-28T05:03:01.199Z,114.50
2018-03-28T05:04:01.178Z,120.40
2018-03-28T05:05:01.370Z,119.80
2018-03-28T05:06:01.378Z,123.70
2018-03-28T05:07:01.155Z,119.40
2018-03-28T05:08:01.168Z,125.60
2018-03-28T05:09:01.160Z,123.00
2018-03-28T05:10:01.151Z,120.00
2018-03-28T05:11:01.138Z,116.70
2018-03-28T05:12:01.141Z,110.40
2018-03-28T05:13:01.146Z,111.10
2018-03-28T05:14:01.122Z,114.70
2018-03-28T05:15:01.127Z,109.10
2018-03-28T05:16:01.114Z,115.80
2018-03-28T05:17:01.134Z,109.30
2018-03-28T05:18:01.108Z,114.50
2018-03-28T05:19:01.101Z,115.00
2018-03-28T05:20:01.113Z,109.60
2018-03-28T05:21:01.102Z,110.40
2018-03-28T05:22:01.102Z,111.10
2018-03-28T05:23:01.084Z,115.60
2018-03-28T05:24:01.071Z,107.10
2018-03-28T05:25:01.065Z,107.70
2018-03-28T05:26:01.071Z,114.00
2018-03-28T05:27:01.049Z,111.50
2018-03-28T05:28:01.068Z,105.00
2018-03-28T05:29:01.044Z,102.10
2018-03-28T05:30:01.045Z,119.30
2018-03-28T05:31:01.050Z,112.20
2018-03-28T05:32:01.026Z,118.80
2018-03-28T05:33:01.031Z,119.70
2018-03-28T05:34:01.025Z,114.70
2018-03-28T05:35:01.010Z,113.60
2018-03-28T05:36:01.002Z,112.80
2018-03-28T05:37:00.997Z,114.50
2018-03-28T05:38:01.016Z,114.00
2018-03-28T05:39:00.995Z,118.60
2018-03-28T05:40:00.981Z,118.80
2018-03-28T05:41:00.986Z,107.40
2018-03-28T05:42:00.970Z,120.80
2018-03-28T05:43:00.987Z,120.50
2018-03-28T05:44:00.987Z,116.20
2018-03-28T05:45:00.952Z,114.80
2018-03-28T05:46:00.972Z,116.60
2018-03-28T05:47:00.951Z,117.50
2018-03-28T05:48:00.950Z,120.70
2018-03-28T05:49:00.932Z,122.50
2018-03-28T05:50:00.948Z,119.70
2018-03-28T05:51:00.932Z,116.30
2018-03-28T05:52:00.919Z,116.80
2018-03-28T05:53:00.920Z,121.30
2018-03-28T05:54:00.916Z,120.50
2018-03-28T05:55:00.901Z,125.30
2018-03-28T05:56:00.919Z,119.80
2018-03-28T05:57:00.886Z,120.60
2018-03-28T05:58:00.879Z,129.40
2018-03-28T05:59:00.891Z,129.80
2018-03-28T06:00:00.882Z,129.90
2018-03-28T06:01:00.887Z,133.90
2018-03-28T06:02:00.873Z,131.20
2018-03-28T06:03:01.062Z,127.10
2018-03-28T06:04:00.852Z,124.80
2018-03-28T06:05:01.050Z,130.10
2018-03-28T06:06:00.840Z,130.60
2018-03-28T06:07:00.836Z,133.00
2018-03-28T06:08:00.833Z,133.00
2018-03-28T06:09:00.822Z,126.70
2018-03-28T06:10:00.833Z,132.30
2018-03-28T06:11:01.034Z,139.50
2018-03-28T06:12:00.807Z,139.90
2018-03-28T06:13:00.835Z,140.50
2018-03-28T06:14:00.797Z,143.00
2018-03-28T06:15:00.804Z,140.70
2018-03-28T06:16:00.786Z,143.50
2018-03-28T06:17:00.791Z,146.70
2018-03-28T06:18:00.982Z,146.30
2018-03-28T06:19:00.783Z,157.00
2018-03-28T06:20:00.768Z,155.20
2018-03-28T06:21:00.778Z,152.00
2018-03-28T06:22:00.778Z,154.60
2018-03-28T06:23:00.747Z,155.30
2018-03-28T06:24:00.951Z,148.40
2018-03-28T06:25:00.944Z,151.50
2018-03-28T06:26:00.946Z,156.80
2018-03-28T06:27:00.748Z,152.30
2018-03-28T06:28:00.749Z,150.00
2018-03-28T06:29:00.920Z,132.70
2018-03-28T06:30:00.737Z,147.20
2018-03-28T06:31:00.706Z,145.40
2018-03-28T06:32:00.708Z,150.10
2018-03-28T06:33:00.710Z,148.20
2018-03-28T06:34:00.711Z,145.00
2018-03-28T06:35:00.693Z,152.80
2018-03-28T06:36:00.702Z,147.10
2018-03-28T06:37:00.689Z,140.70
2018-03-28T06:38:00.669Z,146.80
2018-03-28T06:39:00.696Z,145.20
2018-03-28T06:40:00.677Z,140.10
2018-03-28T06:41:00.687Z,140.00
2018-03-28T06:42:00.668Z,146.40
2018-03-28T06:43:00.649Z,138.10
2018-03-28T06:44:00.651Z,149.40
2018-03-28T06:45:00.657Z,153.40
2018-03-28T06:46:00.846Z,146.60
2018-03-28T06:47:00.846Z,150.40
2018-03-28T06:48:00.633Z,140.80
2018-03-28T06:49:00.640Z,144.70
2018-03-28T06:50:00.623Z,148.30
2018-03-28T06:51:00.617Z,140.30
2018-03-28T06:52:00.613Z,138.80
2018-03-28T06:53:00.809Z,130.60
2018-03-28T06:54:00.602Z,130.70
2018-03-28T06:55:00.592Z,133.00
2018-03-28T06:56:33.973Z,133.90
2018-03-28T06:57:00.779Z,132.20
2018-03-28T06:58:00.567Z,146.30
2018-03-28T06:59:00.565Z,141.40
2018-03-28T07:00:00.585Z,147.80
2018-03-28T07:01:00.558Z,140.30
2018-03-28T07:02:00.593Z,145.60
2018-03-28T07:03:00.570Z,133.20
2018-03-28T07:04:00.552Z,131.70
2018-03-28T07:05:00.744Z,139.10
2018-03-28T07:06:00.547Z,132.80
2018-03-28T07:07:00.561Z,150.30
2018-03-28T07:08:00.533Z,154.30
2018-03-28T07:09:00.535Z,149.40
2018-03-28T07:10:00.513Z,145.50
2018-03-28T07:11:00.508Z,139.40
2018-03-28T07:12:00.513Z,136.20
2018-03-28T07:13:00.511Z,139.50
2018-03-28T07:14:00.495Z,138.80
2018-03-28T07:15:00.502Z,129.40
2018-03-28T07:16:00.502Z,132.00
2018-03-28T07:17:00.488Z,134.80
2018-03-28T07:18:00.474Z,138.50
2018-03-28T07:19:00.686Z,134.60
2018-03-28T07:20:00.465Z,123.30
2018-03-28T07:21:00.465Z,116.50
2018-03-28T07:22:00.657Z,127.20
2018-03-28T07:23:00.454Z,127.60
2018-03-28T07:24:00.455Z,123.00
2018-03-28T07:25:00.444Z,120.60
2018-03-28T07:26:00.653Z,126.40
2018-03-28T07:27:00.648Z,139.30
2018-03-28T07:28:00.431Z,124.40
2018-03-28T07:29:00.426Z,126.80
2018-03-28T07:30:00.427Z,130.70
2018-03-28T07:31:00.414Z,137.60
2018-03-28T07:32:00.432Z,123.70
2018-03-28T07:33:00.418Z,134.10
2018-03-28T07:34:00.402Z,134.70
2018-03-28T07:35:00.645Z,132.50
2018-03-28T07:36:00.403Z,143.30
2018-03-28T07:37:00.400Z,142.10
2018-03-28T07:38:00.388Z,129.00
2018-03-28T07:39:00.581Z,140.40
2018-03-28T07:40:00.579Z,130.30
2018-03-28T07:41:00.370Z,132.90
2018-03-28T07:42:00.380Z,124.50
2018-03-28T07:43:00.603Z,122.80
2018-03-28T07:44:00.360Z,118.40
2018-03-28T07:45:00.352Z,118.60
2018-03-28T07:46:00.353Z,119.40
2018-03-28T07:47:00.346Z,111.30
2018-03-28T07:48:00.403Z,112.80
2018-03-28T07:49:00.338Z,113.60
2018-03-28T07:50:00.334Z,115.80
2018-03-28T07:51:00.544Z,112.50
2018-03-28T07:52:00.335Z,105.20
2018-03-28T07:53:00.535Z,110.30
2018-03-28T07:54:00.532Z,113.70
2018-03-28T07:55:00.322Z,123.70
2018-03-28T07:56:00.324Z,112.40
2018-03-28T07:57:00.318Z,114.10
2018-03-28T07:58:00.518Z,114.60
2018-03-28T07:59:00.501Z,114.80
2018-03-28T08:00:00.290Z,116.10
2018-03-28T08:01:00.305Z,116.50
2018-03-28T08:02:00.291Z,113.80
2018-03-28T08:03:00.484Z,110.60
2018-03-28T08:04:00.507Z,119.60
2018-03-28T08:05:00.273Z,134.50
2018-03-28T08:06:00.471Z,119.20
2018-03-28T08:07:00.263Z,129.00
2018-03-28T08:08:00.260Z,124.20
2018-03-28T08:09:00.482Z,126.00
2018-03-28T08:10:00.269Z,121.40
2018-03-28T08:11:00.250Z,113.90
2018-03-28T08:12:00.250Z,114.80
2018-03-28T08:13:00.454Z,110.60
2018-03-28T08:14:00.250Z,109.70
2018-03-28T08:15:00.267Z,107.00
2018-03-28T08:16:00.437Z,105.20
2018-03-28T08:17:00.223Z,99.90
2018-03-28T08:18:00.236Z,105.10
2018-03-28T08:19:00.229Z,110.90
2018-03-28T08:20:00.226Z,95.60
2018-03-28T08:21:00.205Z,98.20
2018-03-28T08:22:00.219Z,93.90
2018-03-28T08:23:00.416Z,91.00
2018-03-28T08:24:00.416Z,100.60
2018-03-28T08:25:00.220Z,95.40
2018-03-28T08:26:00.186Z,93.50
2018-03-28T08:27:00.397Z,94.20
2018-03-28T08:28:00.187Z,100.10
2018-03-28T08:29:00.380Z,97.40
2018-03-28T08:30:00.172Z,93.40
2018-03-28T08:31:00.186Z,87.90
2018-03-28T08:32:00.175Z,93.10
2018-03-28T08:33:00.161Z,100.30
2018-03-28T08:34:00.375Z,97.40
2018-03-28T08:35:00.164Z,100.20
2018-03-28T08:36:00.159Z,104.00
2018-03-28T08:37:00.358Z,105.10
2018-03-28T08:38:00.151Z,99.40
2018-03-28T08:39:00.136Z,100.50
2018-03-28T08:40:00.348Z,100.40
2018-03-28T08:41:00.330Z,94.60
2018-03-28T08:42:00.140Z,99.40
2018-03-28T08:43:00.324Z,94.60
2018-03-28T08:44:00.347Z,92.80
2018-03-28T08:45:00.322Z,100.20
2018-03-28T08:46:00.116Z,105.00
2018-03-28T08:47:00.326Z,99.20
2018-03-28T08:48:00.115Z,103.30
2018-03-28T08:49:00.111Z,101.10
2018-03-28T08:50:00.113Z,103.20
2018-03-28T08:51:00.299Z,106.30
2018-03-28T08:52:00.302Z,107.80
2018-03-28T08:53:00.094Z,102.80
2018-03-28T08:54:00.074Z,100.50
2018-03-28T08:55:00.072Z,103.80
2018-03-28T08:56:00.067Z,104.50
2018-03-28T08:57:00.074Z,105.60
2018-03-28T08:58:00.060Z,99.50
2018-03-28T08:59:00.060Z,100.40
2018-03-28T09:00:00.275Z,108.20
2018-03-28T09:01:00.058Z,109.60
2018-03-28T09:02:00.045Z,108.70
2018-03-28T09:03:00.052Z,104.00
2018-03-28T09:04:00.056Z,113.70
2018-03-28T09:05:00.034Z,102.80
2018-03-28T09:06:00.026Z,106.70
2018-03-28T09:07:00.235Z,103.70
2018-03-28T09:08:00.031Z,103.30
2018-03-28T09:09:00.016Z,117.80
2018-03-28T09:10:00.217Z,122.00
2018-03-28T09:11:00.010Z,117.70
2018-03-28T09:12:00.015Z,119.00
2018-03-28T09:13:00.003Z,116.40
2018-03-28T09:14:00.008Z,111.30
2018-03-28T09:15:00.194Z,110.30
2018-03-28T09:15:59.985Z,116.60
2018-03-28T09:16:59.981Z,114.30
2018-03-28T09:17:59.979Z,111.70
2018-03-28T09:19:00.191Z,106.60
2018-03-28T09:20:00.173Z,107.40
2018-03-28T09:21:00.188Z,110.80
2018-03-28T09:22:00.177Z,114.70
2018-03-28T09:22:59.969Z,111.50
2018-03-28T09:24:00.162Z,106.30
2018-03-28T09:24:59.953Z,105.40
2018-03-28T09:26:00.003Z,110.40
2018-03-28T09:26:59.957Z,105.90
2018-03-28T09:28:00.156Z,99.10
2018-03-28T09:28:59.939Z,102.60
2018-03-28T09:30:00.172Z,102.70
2018-03-28T09:30:59.944Z,102.50
2018-03-28T09:32:00.139Z,109.00
2018-03-28T09:32:59.941Z,108.70
2018-03-28T09:34:00.133Z,93.20
2018-03-28T09:35:00.184Z,92.30
2018-03-28T09:35:59.920Z,87.00
2018-03-28T09:36:59.961Z,89.10
2018-03-28T09:37:59.902Z,94.60
2018-03-28T09:38:59.910Z,96.10
2018-03-28T09:39:59.895Z,96.50
2018-03-28T09:41:00.098Z,86.10
2018-03-28T09:41:59.890Z,91.70
2018-03-28T09:42:59.884Z,85.20
2018-03-28T09:43:59.893Z,81.60
2018-03-28T09:44:59.877Z,83.60
2018-03-28T09:45:59.873Z,78.90
2018-03-28T09:47:00.093Z,77.00
2018-03-28T09:47:59.879Z,75.20
2018-03-28T09:49:00.079Z,78.60
2018-03-28T09:49:59.879Z,72.40
2018-03-28T09:50:59.864Z,71.60
2018-03-28T09:51:59.860Z,69.10
2018-03-28T09:52:59.851Z,62.70
2018-03-28T09:53:59.856Z,64.90
2018-03-28T09:54:59.894Z,68.10
2018-03-28T09:55:59.873Z,66.10
2018-03-28T09:56:59.832Z,69.00
2018-03-28T09:57:59.846Z,69.00
2018-03-28T09:58:59.848Z,77.20
2018-03-28T09:59:59.823Z,81.40
2018-03-28T10:00:59.820Z,76.40
2018-03-28T10:01:59.823Z,73.90
2018-03-28T10:03:59.817Z,64.40
2018-03-28T10:04:59.804Z,67.30
2018-03-28T10:05:59.824Z,70.60
2018-03-28T10:06:59.814Z,72.30
2018-03-28T10:07:59.807Z,71.90
2018-03-28T10:08:59.803Z,72.60
2018-03-28T10:09:59.820Z,73.90
2018-03-28T10:10:59.802Z,71.30
2018-03-28T10:11:59.804Z,73.20
2018-03-28T10:12:59.773Z,77.10
2018-03-28T10:13:59.796Z,78.00
2018-03-28T10:14:59.801Z,77.70
2018-03-28T10:15:59.776Z,76.00
2018-03-28T10:16:59.762Z,77.90
2018-03-28T10:17:59.768Z,70.00
2018-03-28T10:18:59.751Z,68.30
2018-03-28T10:19:59.949Z,71.30
2018-03-28T10:20:59.959Z,70.30
2018-03-28T10:21:59.774Z,62.80
2018-03-28T10:22:59.745Z,63.20
2018-03-28T10:23:59.760Z,70.20
2018-03-28T10:24:59.748Z,63.90
2018-03-28T10:25:59.748Z,66.80
2018-03-28T10:26:59.934Z,65.20
2018-03-28T10:27:59.931Z,65.40
2018-03-28T10:28:59.942Z,62.00
2018-03-28T10:29:59.739Z,56.80
2018-03-28T10:30:59.720Z,56.90
2018-03-28T10:31:59.707Z,58.60
2018-03-28T10:32:59.710Z,53.60
2018-03-28T10:33:59.710Z,54.60
2018-03-28T10:34:59.693Z,57.40
2018-03-28T10:35:59.700Z,58.50
2018-03-28T10:36:59.685Z,54.90
2018-03-28T10:37:59.690Z,61.60
2018-03-28T10:38:59.681Z,59.90
2018-03-28T10:39:59.676Z,60.20
2018-03-28T10:40:59.681Z,55.00
2018-03-28T10:41:59.876Z,54.90
2018-03-28T10:42:59.665Z,58.10
2018-03-28T10:43:59.872Z,56.70
2018-03-28T10:44:59.672Z,54.50
2018-03-28T10:45:59.663Z,58.20
2018-03-28T10:46:59.658Z,55.30
2018-03-28T10:47:59.858Z,59.00
2018-03-28T10:48:59.661Z,57.80
2018-03-28T10:49:59.651Z,56.90
2018-03-28T10:50:59.632Z,57.60
2018-03-28T10:51:59.630Z,60.90
2018-03-28T10:52:59.641Z,57.60
2018-03-28T10:53:59.824Z,54.70
2018-03-28T10:54:59.637Z,53.70
2018-03-28T10:55:59.826Z,55.50
2018-03-28T10:56:59.634Z,56.70
2018-03-28T10:57:59.619Z,54.70
2018-03-28T10:58:59.612Z,56.00
2018-03-28T10:59:59.612Z,53.60
2018-03-28T11:00:59.611Z,56.30
2018-03-28T11:01:59.593Z,56.40
2018-03-28T11:02:59.788Z,59.50
2018-03-28T11:03:59.801Z,61.90
2018-03-28T11:04:59.580Z,53.50
2018-03-28T11:05:59.593Z,55.90
2018-03-28T11:06:59.576Z,50.70
2018-03-28T11:07:59.593Z,53.60
2018-03-28T11:08:59.565Z,55.70
2018-03-28T11:09:59.774Z,57.40
2018-03-28T11:10:59.568Z,56.00
2018-03-28T11:11:59.576Z,56.00
2018-03-28T11:12:59.560Z,61.50
2018-03-28T11:13:59.548Z,51.70
2018-03-28T11:14:59.544Z,51.00
2018-03-28T11:15:59.757Z,50.10
2018-03-28T11:16:59.538Z,46.50
2018-03-28T11:17:59.532Z,51.60
2018-03-28T11:18:59.526Z,51.60
2018-03-28T11:19:59.733Z,51.40
2018-03-28T11:20:59.749Z,49.60
2018-03-28T11:21:59.527Z,52.60
2018-03-28T11:22:59.537Z,50.50
2018-03-28T11:23:59.736Z,50.50
2018-03-28T11:24:59.506Z,47.30
2018-03-28T11:25:59.554Z,55.80
2018-03-28T11:26:59.499Z,48.60
2018-03-28T11:27:59.505Z,47.60
2018-03-28T11:28:59.715Z,47.30
2018-03-28T11:29:59.503Z,45.30
2018-03-28T11:30:59.505Z,43.60
2018-03-28T11:31:59.489Z,45.80
2018-03-28T11:32:59.475Z,45.30
2018-03-28T11:33:59.477Z,42.40
2018-03-28T11:34:59.482Z,44.20
2018-03-28T11:35:59.487Z,45.30
2018-03-28T11:36:59.473Z,39.00
2018-03-28T11:37:59.511Z,39.80
2018-03-28T11:38:59.453Z,40.10
2018-03-28T11:39:59.453Z,40.60
2018-03-28T11:40:59.457Z,38.40
2018-03-28T11:41:59.649Z,39.80
2018-03-28T11:42:59.452Z,37.70
2018-03-28T11:43:59.460Z,44.40
2018-03-28T11:44:59.445Z,46.10
2018-03-28T11:45:59.429Z,43.50
2018-03-28T11:46:59.425Z,44.40
2018-03-28T11:47:59.637Z,42.80
2018-03-28T11:48:59.430Z,43.00
2018-03-28T11:49:59.418Z,39.90
2018-03-28T11:50:59.421Z,41.60
2018-03-28T11:51:59.418Z,39.70
2018-03-28T11:52:59.498Z,42.20
2018-03-28T11:53:59.414Z,41.60
2018-03-28T11:54:59.407Z,39.60
2018-03-28T11:55:59.399Z,37.30
2018-03-28T11:56:59.405Z,35.80
2018-03-28T11:57:59.387Z,37.70
2018-03-28T11:58:59.589Z,38.70
2018-03-28T11:59:59.383Z,38.80
2018-03-28T12:00:59.379Z,39.90
2018-03-28T12:01:59.382Z,38.90
2018-03-28T12:02:59.384Z,40.10
2018-03-28T12:03:59.383Z,39.80
2018-03-28T12:04:59.372Z,34.70
2018-03-28T12:05:59.355Z,37.90
2018-03-28T12:06:59.557Z,38.80
2018-03-28T12:07:59.376Z,35.80
2018-03-28T12:08:59.349Z,35.50
2018-03-28T12:09:59.348Z,38.40
2018-03-28T12:10:59.351Z,36.10
2018-03-28T12:11:59.347Z,36.50
2018-03-28T12:12:59.336Z,38.20
2018-03-28T12:13:59.356Z,36.20
2018-03-28T12:14:59.329Z,39.50
2018-03-28T12:15:59.369Z,42.50
2018-03-28T12:16:59.332Z,37.30
2018-03-28T12:17:59.329Z,40.20
2018-03-28T12:18:59.336Z,38.50
2018-03-28T12:19:59.334Z,34.20
2018-03-28T12:20:59.310Z,38.00
2018-03-28T12:21:59.330Z,38.60
2018-03-28T12:22:59.322Z,37.50
2018-03-28T12:23:59.309Z,40.80
2018-03-28T12:24:59.314Z,38.60
2018-03-28T12:25:59.308Z,42.10
2018-03-28T12:26:59.300Z,37.90
2018-03-28T12:27:59.283Z,40.10
2018-03-28T12:28:59.282Z,36.20
2018-03-28T12:29:59.290Z,34.00
2018-03-28T12:30:59.276Z,41.00
2018-03-28T12:31:59.279Z,40.30
2018-03-28T12:32:59.266Z,41.70
2018-03-28T12:33:59.292Z,41.30
2018-03-28T12:34:59.299Z,39.80